createdAt,value
2023-05-11T00:00:42.809Z,100221.63
2023-05-11T00:04:55.941Z,100216.13
2023-05-11T00:09:09.703Z,100209.94
2023-05-11T00:13:22.066Z,100210.00
2023-05-11T00:17:34.506Z,100201.06
2023-05-11T00:21:47.077Z,100199.34
2023-05-11T00:25:59.434Z,100189.00
2023-05-11T00:30:12.583Z,100188.56
2023-05-11T00:34:25.046Z,100184.41
2023-05-11T00:38:41.460Z,100173.06
2023-05-11T00:42:53.874Z,100171.03
2023-05-11T00:47:07.616Z,100172.19
2023-05-11T00:51:21.727Z,100172.56
2023-05-11T00:55:34.119Z,100163.47
2023-05-11T00:59:47.546Z,100161.84
2023-05-11T01:04:00.004Z,100152.41
2023-05-11T01:08:22.743Z,100153.38
2023-05-11T01:12:35.131Z,100147.88
2023-05-11T01:16:56.579Z,100138.59
2023-05-11T01:21:11.679Z,100146.09
2023-05-11T01:25:29.948Z,100146.03
2023-05-11T01:29:58.830Z,100141.88
2023-05-11T01:34:18.073Z,100138.97
2023-05-11T01:38:37.991Z,100137.69
2023-05-11T01:42:54.980Z,100145.09
2023-05-11T01:47:09.643Z,100139.06
2023-05-11T01:51:27.892Z,100144.41
2023-05-11T01:55:41.565Z,100139.84
2023-05-11T01:59:57.040Z,100138.97
2023-05-11T02:04:13.722Z,100142.66
2023-05-11T02:08:27.558Z,100133.72
2023-05-11T02:12:42.684Z,100128.41
2023-05-11T02:16:57.154Z,100131.13
2023-05-11T02:21:11.294Z,100140.81
2023-05-11T02:25:25.209Z,100141.72
2023-05-11T02:29:37.679Z,100140.97
2023-05-11T02:33:52.695Z,100143.63
2023-05-11T02:38:06.262Z,100137.41
2023-05-11T02:42:23.269Z,100138.19
2023-05-11T02:46:39.115Z,100138.22
2023-05-11T02:50:55.438Z,100141.66
2023-05-11T02:55:11.160Z,100139.94
2023-05-11T02:59:25.420Z,100129.22
2023-05-11T03:03:40.099Z,100143.38
2023-05-11T03:07:57.865Z,100140.63
2023-05-11T03:12:11.699Z,100141.34
2023-05-11T03:16:25.077Z,100135.81
2023-05-11T03:20:44.835Z,100139.00
2023-05-11T03:24:57.112Z,100140.81
2023-05-11T03:29:11.027Z,100141.50
2023-05-11T03:33:23.687Z,100139.56
2023-05-11T03:37:38.663Z,100144.09
2023-05-11T03:41:53.781Z,100141.41
2023-05-11T03:46:07.261Z,100139.63
2023-05-11T03:50:21.559Z,100141.25
2023-05-11T03:54:34.130Z,100139.28
2023-05-11T03:58:46.809Z,100138.75
2023-05-11T04:03:02.849Z,100136.81
2023-05-11T04:07:15.315Z,100139.50
2023-05-11T04:11:30.246Z,100141.91
2023-05-11T04:15:43.508Z,100143.56
2023-05-11T04:19:56.359Z,100144.31
2023-05-11T04:24:09.257Z,100156.66
2023-05-11T04:28:24.130Z,100152.31
2023-05-11T04:32:37.396Z,100155.00
2023-05-11T04:36:50.879Z,100164.84
2023-05-11T04:41:08.673Z,100158.72
2023-05-11T04:45:22.207Z,100168.28
2023-05-11T04:49:37.258Z,100177.94
2023-05-11T04:53:50.514Z,100173.28
2023-05-11T04:58:05.526Z,100179.66
2023-05-11T05:02:19.148Z,100179.28
2023-05-11T05:06:32.547Z,100188.00
2023-05-11T05:10:45.033Z,100184.31
2023-05-11T05:14:57.439Z,100187.69
2023-05-11T05:19:13.145Z,100185.66
2023-05-11T05:23:26.516Z,100193.53
2023-05-11T05:27:39.095Z,100194.16
2023-05-11T05:31:54.784Z,100197.66
2023-05-11T05:36:10.938Z,100195.53
2023-05-11T05:40:23.490Z,100201.06
2023-05-11T05:44:40.101Z,100204.38
2023-05-11T05:48:52.576Z,100204.59
2023-05-11T05:53:05.394Z,100202.50
2023-05-11T05:57:22.196Z,100208.16
2023-05-11T06:01:36.359Z,100206.25
2023-05-11T06:05:48.896Z,100220.38
2023-05-11T06:10:01.459Z,100215.78
2023-05-11T06:14:15.088Z,100218.53
2023-05-11T06:18:28.401Z,100218.84
2023-05-11T06:22:41.075Z,100220.63
2023-05-11T06:26:56.292Z,100226.63
2023-05-11T06:31:08.903Z,100231.53
2023-05-11T06:35:24.367Z,100227.91
2023-05-11T06:39:40.479Z,100223.66
2023-05-11T06:43:54.529Z,100222.06
2023-05-11T06:48:13.013Z,100219.31
2023-05-11T06:52:25.362Z,100223.34
2023-05-11T06:56:37.778Z,100220.59
2023-05-11T07:00:50.228Z,100227.25
2023-05-11T07:05:04.564Z,100229.59
2023-05-11T07:09:17.088Z,100235.50
2023-05-11T07:13:29.498Z,100237.72
2023-05-11T07:17:43.043Z,100231.13
2023-05-11T07:21:55.562Z,100224.44
2023-05-11T07:26:10.579Z,100232.69
2023-05-11T07:30:23.332Z,100232.22
2023-05-11T07:34:36.119Z,100234.63
2023-05-11T07:38:48.614Z,100236.47
2023-05-11T07:43:01.412Z,100240.50
2023-05-11T07:47:14.015Z,100241.50
2023-05-11T07:51:26.394Z,100237.31
2023-05-11T07:55:38.854Z,100242.34
2023-05-11T07:59:51.566Z,100235.25
2023-05-11T08:04:04.321Z,100246.22
2023-05-11T08:08:19.160Z,100248.63
2023-05-11T08:12:31.556Z,100254.25
2023-05-11T08:16:45.176Z,100264.97
2023-05-11T08:20:57.587Z,100276.28
2023-05-11T08:25:10.235Z,100271.31
2023-05-11T08:29:22.565Z,100289.84
2023-05-11T08:33:38.169Z,100296.16
2023-05-11T08:37:51.225Z,100294.06
2023-05-11T08:42:07.338Z,100298.16
2023-05-11T08:46:27.302Z,100307.94
2023-05-11T08:50:39.792Z,100303.34
2023-05-11T08:54:53.078Z,100303.75
2023-05-11T08:59:05.691Z,100304.16
2023-05-11T09:03:19.896Z,100312.47
2023-05-11T09:07:36.178Z,100311.66
2023-05-11T09:11:48.790Z,100316.16
2023-05-11T09:16:01.259Z,100311.56
2023-05-11T09:20:13.731Z,100312.53
2023-05-11T09:24:27.134Z,100306.41
2023-05-11T09:33:01.506Z,100316.53
2023-05-11T09:37:18.980Z,100317.69
2023-05-11T09:41:35.683Z,100309.34
2023-05-11T09:45:54.143Z,100310.75
2023-05-11T09:50:18.041Z,100315.59
2023-05-11T09:54:31.955Z,100320.50
2023-05-11T09:58:52.829Z,100314.13
2023-05-11T10:03:08.038Z,100320.03
2023-05-11T10:07:30.419Z,100307.78
2023-05-11T10:11:46.068Z,100315.59
2023-05-11T10:16:02.567Z,100312.09
2023-05-11T10:20:16.020Z,100305.00
2023-05-11T10:24:29.065Z,100301.78
2023-05-11T10:28:41.765Z,100294.22
2023-05-11T10:32:56.302Z,100295.34
2023-05-11T10:37:09.734Z,100294.88
2023-05-11T10:41:46.768Z,100294.53
2023-05-11T10:46:30.652Z,100288.88
2023-05-11T10:51:05.817Z,100297.84
2023-05-11T10:55:52.145Z,100287.19
2023-05-11T11:00:14.528Z,100288.91
2023-05-11T11:04:45.868Z,100293.78
2023-05-11T11:08:58.426Z,100301.19
2023-05-11T11:13:13.145Z,100302.69
2023-05-11T11:17:44.999Z,100317.31
2023-05-11T11:22:00.126Z,100314.69
2023-05-11T11:26:17.368Z,100326.06
2023-05-11T11:30:32.949Z,100329.81
2023-05-11T11:34:46.155Z,100339.19
2023-05-11T11:39:03.136Z,100335.38
2023-05-11T11:43:25.021Z,100336.00
2023-05-11T11:47:37.987Z,100336.72
2023-05-11T11:51:50.996Z,100333.03
2023-05-11T11:56:08.197Z,100335.97
2023-05-11T12:00:21.642Z,100327.38
2023-05-11T12:04:41.135Z,100308.06
2023-05-11T12:08:53.965Z,100317.13
2023-05-11T12:13:07.063Z,100320.41
2023-05-11T12:17:28.551Z,100312.34
2023-05-11T12:21:45.489Z,100312.00
2023-05-11T12:26:02.745Z,100314.19
2023-05-11T12:30:24.767Z,100312.22
2023-05-11T12:34:37.134Z,100299.66
2023-05-11T12:38:49.808Z,100293.09
2023-05-11T12:43:02.245Z,100285.97
2023-05-11T12:47:15.440Z,100286.88
2023-05-11T12:51:50.893Z,100284.63
2023-05-11T12:56:04.598Z,100271.44
2023-05-11T13:00:17.731Z,100281.34
2023-05-11T13:04:32.314Z,100275.72
2023-05-11T13:08:46.371Z,100271.66
2023-05-11T13:12:59.497Z,100275.66
2023-05-11T13:17:12.093Z,100259.00
2023-05-11T13:21:24.476Z,100255.00
2023-05-11T13:25:45.831Z,100254.63
2023-05-11T13:29:59.677Z,100250.00
2023-05-11T13:34:12.241Z,100244.84
2023-05-11T13:38:24.723Z,100248.00
2023-05-11T13:42:37.879Z,100250.25
2023-05-11T13:46:50.821Z,100249.94
2023-05-11T13:51:03.268Z,100251.59
2023-05-11T13:55:16.044Z,100247.66
2023-05-11T13:59:28.654Z,100261.63
2023-05-11T14:03:41.155Z,100257.22
2023-05-11T14:07:53.684Z,100255.28
2023-05-11T14:12:07.031Z,100267.31
2023-05-11T14:16:20.537Z,100258.75
2023-05-11T14:20:32.956Z,100259.75
2023-05-11T14:24:45.717Z,100263.63
2023-05-11T14:28:58.656Z,100259.72
2023-05-11T14:33:11.484Z,100251.63
2023-05-11T14:37:23.972Z,100253.31
2023-05-11T14:41:37.071Z,100256.84
2023-05-11T14:45:49.547Z,100256.13
2023-05-11T14:50:01.980Z,100248.78
2023-05-11T14:54:14.347Z,100253.50
2023-05-11T14:58:29.899Z,100247.66
2023-05-11T15:02:42.332Z,100251.59
2023-05-11T15:06:55.311Z,100243.97
2023-05-11T15:11:08.691Z,100243.53
2023-05-11T15:15:21.627Z,100238.19
2023-05-11T15:19:34.013Z,100235.59
2023-05-11T15:23:46.487Z,100237.66
2023-05-11T15:27:58.929Z,100234.72
2023-05-11T15:32:15.692Z,100228.97
2023-05-11T15:36:29.731Z,100237.09
2023-05-11T15:40:42.613Z,100223.97
2023-05-11T15:44:55.054Z,100239.44
2023-05-11T15:49:07.820Z,100228.16
2023-05-11T15:53:20.224Z,100230.13
2023-05-11T15:57:34.429Z,100231.91
2023-05-11T16:01:47.098Z,100226.22
2023-05-11T16:05:59.507Z,100224.56
2023-05-11T16:10:11.934Z,100221.13
2023-05-11T16:14:24.878Z,100223.53
2023-05-11T16:18:39.431Z,100227.00
2023-05-11T16:22:51.960Z,100227.00
2023-05-11T16:27:04.559Z,100231.59
2023-05-11T16:31:17.099Z,100229.03
2023-05-11T16:35:29.649Z,100234.91
2023-05-11T16:39:41.984Z,100240.56
2023-05-11T16:43:54.807Z,100238.47
2023-05-11T16:48:07.310Z,100241.81
2023-05-11T16:52:20.084Z,100232.63
2023-05-11T16:56:32.583Z,100235.56
2023-05-11T17:00:45.080Z,100229.50
2023-05-11T17:04:57.523Z,100244.63
2023-05-11T17:09:09.993Z,100252.41
2023-05-11T17:13:22.469Z,100265.56
2023-05-11T17:17:34.898Z,100271.84
2023-05-11T17:21:47.268Z,100271.38
2023-05-11T17:26:00.065Z,100276.22
2023-05-11T17:30:12.936Z,100279.44
2023-05-11T17:34:28.285Z,100280.31
2023-05-11T17:38:41.221Z,100280.19
2023-05-11T17:42:53.649Z,100283.06
2023-05-11T17:47:08.282Z,100286.94
2023-05-11T17:51:20.919Z,100288.81
2023-05-11T17:55:33.271Z,100286.91
2023-05-11T17:59:47.539Z,100295.28
2023-05-11T18:04:01.151Z,100306.94
2023-05-11T18:08:14.563Z,100311.56
2023-05-11T18:12:27.266Z,100314.38
2023-05-11T18:16:39.739Z,100316.19
2023-05-11T18:20:52.514Z,100312.75
2023-05-11T18:25:05.340Z,100315.03
2023-05-11T18:29:20.302Z,100313.91
2023-05-11T18:33:32.748Z,100315.53
2023-05-11T18:37:45.203Z,100315.81
2023-05-11T18:42:01.664Z,100328.44
2023-05-11T18:46:14.433Z,100332.25
2023-05-11T18:50:30.015Z,100338.50
2023-05-11T18:54:42.549Z,100343.00
2023-05-11T18:58:54.994Z,100347.19
2023-05-11T19:03:07.962Z,100347.53
2023-05-11T19:07:20.854Z,100353.16
2023-05-11T19:11:33.351Z,100346.50
2023-05-11T19:15:45.801Z,100343.16
2023-05-11T19:19:58.377Z,100353.69
2023-05-11T19:24:12.103Z,100356.03
2023-05-11T19:28:25.196Z,100356.69
2023-05-11T19:32:37.975Z,100354.25
2023-05-11T19:36:50.524Z,100361.47
2023-05-11T19:41:03.893Z,100363.63
2023-05-11T19:45:19.323Z,100363.38
2023-05-11T19:49:31.984Z,100365.44
2023-05-11T19:53:45.032Z,100361.03
2023-05-11T19:57:58.280Z,100366.03
2023-05-11T20:02:12.474Z,100375.13
2023-05-11T20:06:26.550Z,100374.88
2023-05-11T20:10:39.172Z,100385.41
2023-05-11T20:14:52.881Z,100384.72
2023-05-11T20:19:06.336Z,100383.97
2023-05-11T20:23:18.796Z,100382.03
2023-05-11T20:27:31.332Z,100382.84
2023-05-11T20:31:43.835Z,100382.19
2023-05-11T20:35:56.285Z,100376.91
2023-05-11T20:40:09.508Z,100378.38
2023-05-11T20:44:21.960Z,100374.53
2023-05-11T20:48:40.509Z,100384.91
2023-05-11T20:52:54.603Z,100379.28
2023-05-11T20:57:08.728Z,100373.00
2023-05-11T21:01:21.281Z,100372.13
2023-05-11T21:05:33.842Z,100368.59
2023-05-11T21:09:46.392Z,100365.69
2023-05-11T21:13:58.947Z,100357.91
2023-05-11T21:18:12.262Z,100375.56
2023-05-11T21:22:24.658Z,100378.38
2023-05-11T21:26:37.118Z,100369.00
2023-05-11T21:30:50.327Z,100369.78
2023-05-11T21:35:03.840Z,100379.38
2023-05-11T21:39:16.835Z,100382.75
2023-05-11T21:43:29.542Z,100388.97
2023-05-11T21:47:42.456Z,100377.72
2023-05-11T21:51:54.802Z,100388.47
2023-05-11T21:56:07.463Z,100380.34
2023-05-11T22:00:20.691Z,100390.59
2023-05-11T22:04:33.546Z,100385.50
2023-05-11T22:08:46.646Z,100386.50
2023-05-11T22:12:59.146Z,100384.59
2023-05-11T22:17:11.608Z,100395.56
2023-05-11T22:21:27.072Z,100392.09
2023-05-11T22:25:39.440Z,100384.09
2023-05-11T22:29:53.447Z,100382.78
2023-05-11T22:34:06.350Z,100391.22
2023-05-11T22:38:18.838Z,100389.78
2023-05-11T22:42:33.039Z,100390.34
2023-05-11T22:46:45.508Z,100406.41
2023-05-11T22:50:57.909Z,100403.03
2023-05-11T22:55:12.481Z,100402.38
2023-05-11T22:59:24.873Z,100398.47
2023-05-11T23:03:37.369Z,100397.81
2023-05-11T23:07:49.749Z,100397.13
2023-05-11T23:12:02.354Z,100392.69
2023-05-11T23:16:15.734Z,100394.13
2023-05-11T23:20:28.123Z,100402.84
2023-05-11T23:24:40.538Z,100394.41
2023-05-11T23:28:55.526Z,100402.84
2023-05-11T23:33:08.266Z,100414.63
2023-05-11T23:37:22.064Z,100407.69
2023-05-11T23:41:34.835Z,100410.22
2023-05-11T23:45:47.245Z,100407.69
2023-05-11T23:49:59.935Z,100413.28
2023-05-11T23:54:12.548Z,100409.09
2023-05-11T23:58:25.175Z,100413.13
